Time;durP1;ratioP1;P1;durP2;ratioP2;P2;SDS_P1;SDS_P2;PMS_P1;PMS_P2;Temp;Humidity;BMP_temperature;BMP_pressure;BME280_temperature;BME280_humidity;BME280_pressure;Samples;Min_cycle;Max_cycle;Signal;HPM_P1;HPM_P2
2022/01/10 00:00:34;;;;;;;64.20;29.03;;;;;;;;;;5049107;28;20446;-65
2022/01/10 00:03:01;;;;;;;67.37;29.03;;;;;;;;;;5048664;28;20535;-65
2022/01/10 00:05:28;;;;;;;65.43;27.77;;;;;;;;;;5048434;28;20520;-65
2022/01/10 00:07:55;;;;;;;66.70;28.37;;;;;;;;;;5049393;28;20517;-65
2022/01/10 00:10:21;;;;;;;60.83;27.07;;;;;;;;;;5048961;28;21175;-65
2022/01/10 00:12:48;;;;;;;62.13;27.43;;;;;;;;;;5048507;28;20470;-65
2022/01/10 00:15:16;;;;;;;67.47;28.47;;;;;;;;;;5048916;28;20452;-65
2022/01/10 00:17:45;;;;;;;67.57;28.70;;;;;;;;;;5048566;28;20500;-65
2022/01/10 00:20:15;;;;;;;69.03;27.70;;;;;;;;;;5048931;28;20436;-65
2022/01/10 00:22:45;;;;;;;61.90;26.47;;;;;;;;;;5048660;28;20804;-65
2022/01/10 00:25:13;;;;;;;69.03;29.03;;;;;;;;;;5048686;28;20530;-65
2022/01/10 00:27:39;;;;;;;59.33;24.40;;;;;;;;;;5048559;28;20436;-65
2022/01/10 00:30:06;;;;;;;69.90;30.83;;;;;;;;;;5014469;28;20432;-65
2022/01/10 00:32:33;;;;;;;65.07;29.40;;;;;;;;;;5048605;28;20505;-65
2022/01/10 00:34:59;;;;;;;60.17;28.20;;;;;;;;;;5049028;28;20431;-65
2022/01/10 00:37:26;;;;;;;63.83;27.73;;;;;;;;;;5048190;28;20521;-65
2022/01/10 00:39:53;;;;;;;63.23;27.47;;;;;;;;;;5048275;28;20472;-65
2022/01/10 00:42:19;;;;;;;62.93;27.07;;;;;;;;;;5048458;28;20493;-65
2022/01/10 00:44:51;;;;;;;63.23;27.30;;;;;;;;;;5030569;28;20467;-65
2022/01/10 00:47:18;;;;;;;64.57;27.23;;;;;;;;;;5048155;28;20519;-65
2022/01/10 00:49:44;;;;;;;65.70;27.27;;;;;;;;;;5048331;28;20434;-65
2022/01/10 00:52:12;;;;;;;64.47;26.17;;;;;;;;;;5047141;28;20438;-65
2022/01/10 00:54:38;;;;;;;54.27;25.30;;;;;;;;;;5048263;28;20502;-65
2022/01/10 00:57:06;;;;;;;62.07;26.50;;;;;;;;;;5046897;28;20454;-65
2022/01/10 00:59:33;;;;;;;83.90;33.97;;;;;;;;;;5046895;28;20483;-65
2022/01/10 01:01:59;;;;;;;86.67;33.97;;;;;;;;;;5031121;28;20428;-65
2022/01/10 01:40:22;;;;;;;73.63;28.93;;;;;;;;;;5047656;28;20480;-66
2022/01/10 01:42:49;;;;;;;76.83;30.67;;;;;;;;;;5029931;28;20807;-64
2022/01/10 01:45:16;;;;;;;68.23;30.47;;;;;;;;;;5056621;28;20787;-66
2022/01/10 01:47:43;;;;;;;69.60;28.27;;;;;;;;;;5067798;28;20434;-67
2022/01/10 01:50:21;;;;;;;70.70;30.20;;;;;;;;;;5050123;28;20445;-66
2022/01/10 01:52:48;;;;;;;70.30;29.17;;;;;;;;;;5050050;28;20475;-67
2022/01/10 01:55:15;;;;;;;70.00;28.73;;;;;;;;;;5049834;28;20792;-67
2022/01/10 01:57:41;;;;;;;68.87;29.77;;;;;;;;;;5049522;28;21320;-65
2022/01/10 02:00:08;;;;;;;71.00;28.97;;;;;;;;;;5036342;28;20449;-66
2022/01/10 02:02:43;;;;;;;60.47;26.97;;;;;;;;;;5071118;28;20425;-65
2022/01/10 02:05:10;;;;;;;58.97;26.43;;;;;;;;;;5053513;28;20987;-65
2022/01/10 02:07:36;;;;;;;60.00;26.37;;;;;;;;;;5071174;28;20815;-65
2022/01/10 02:10:04;;;;;;;65.20;28.73;;;;;;;;;;5070971;28;20521;-67
2022/01/10 02:12:31;;;;;;;69.70;29.80;;;;;;;;;;5052995;28;20871;-67
2022/01/10 02:15:01;;;;;;;63.77;28.97;;;;;;;;;;5053131;28;20528;-67
2022/01/10 02:17:35;;;;;;;75.03;30.23;;;;;;;;;;5052953;28;20495;-67
2022/01/10 02:20:09;;;;;;;68.00;27.60;;;;;;;;;;5052879;28;20545;-67
2022/01/10 02:22:37;;;;;;;63.27;27.50;;;;;;;;;;5053067;28;20533;-66
2022/01/10 02:25:24;;;;;;;62.73;26.77;;;;;;;;;;5052726;28;20494;-67
2022/01/10 02:27:53;;;;;;;79.60;30.67;;;;;;;;;;5052710;28;20443;-67
2022/01/10 02:30:20;;;;;;;67.07;28.07;;;;;;;;;;5070902;28;20420;-67
2022/01/10 02:32:46;;;;;;;70.30;29.43;;;;;;;;;;5052671;28;20548;-66
2022/01/10 02:35:31;;;;;;;64.77;28.07;;;;;;;;;;5052951;28;20486;-67
2022/01/10 02:37:58;;;;;;;66.57;28.40;;;;;;;;;;5052992;28;20466;-67
2022/01/10 02:40:27;;;;;;;69.63;29.63;;;;;;;;;;5070342;28;20468;-67
2022/01/10 02:42:54;;;;;;;55.47;25.87;;;;;;;;;;5052433;28;20525;-67
2022/01/10 02:45:20;;;;;;;62.10;26.17;;;;;;;;;;5052524;28;20480;-67
2022/01/10 02:47:47;;;;;;;57.07;25.63;;;;;;;;;;5041756;28;20446;-67
2022/01/10 02:50:14;;;;;;;54.87;24.63;;;;;;;;;;5033073;28;20857;-65
2022/01/10 02:52:42;;;;;;;55.67;25.03;;;;;;;;;;5016337;28;20466;-66
2022/01/10 02:55:09;;;;;;;61.10;25.97;;;;;;;;;;5032378;28;20492;-67
2022/01/10 02:57:36;;;;;;;57.20;26.03;;;;;;;;;;5050050;28;20430;-67
2022/01/10 03:00:13;;;;;;;54.90;25.07;;;;;;;;;;5032107;28;20512;-65
2022/01/10 03:02:41;;;;;;;58.97;26.33;;;;;;;;;;5032322;28;20465;-66
2022/01/10 03:05:08;;;;;;;66.17;27.17;;;;;;;;;;5050080;28;20541;-67
2022/01/10 03:07:35;;;;;;;65.43;26.77;;;;;;;;;;5050190;28;20430;-66
2022/01/10 03:10:02;;;;;;;59.37;27.57;;;;;;;;;;5050478;28;20455;-67
2022/01/10 03:12:31;;;;;;;63.23;27.40;;;;;;;;;;5051078;28;20459;-66
2022/01/10 03:14:58;;;;;;;62.50;27.53;;;;;;;;;;5052368;28;20423;-66
2022/01/10 03:17:26;;;;;;;59.13;26.20;;;;;;;;;;5052103;28;21268;-67
2022/01/10 03:19:53;;;;;;;70.27;28.67;;;;;;;;;;5052237;28;20476;-65
2022/01/10 03:22:19;;;;;;;83.33;33.17;;;;;;;;;;5069704;28;20806;-65
2022/01/10 03:24:46;;;;;;;78.83;32.37;;;;;;;;;;5069164;28;20522;-64
2022/01/10 03:27:14;;;;;;;82.53;32.20;;;;;;;;;;5051588;28;20512;-65
2022/01/10 03:29:40;;;;;;;75.03;30.50;;;;;;;;;;5069758;28;21178;-65
2022/01/10 03:32:08;;;;;;;57.53;24.90;;;;;;;;;;5051808;28;20533;-64
2022/01/10 03:34:35;;;;;;;62.10;26.57;;;;;;;;;;5051671;28;20449;-66
2022/01/10 03:37:01;;;;;;;55.27;24.77;;;;;;;;;;5051716;28;20436;-66
2022/01/10 03:39:28;;;;;;;59.60;24.93;;;;;;;;;;5047958;28;20528;-67
2022/01/10 03:41:55;;;;;;;58.07;24.87;;;;;;;;;;5048179;28;20861;-66
2022/01/10 03:44:22;;;;;;;59.50;26.50;;;;;;;;;;5048124;28;20443;-67
2022/01/10 03:46:49;;;;;;;69.40;27.77;;;;;;;;;;5048393;28;20507;-67
2022/01/10 03:49:16;;;;;;;64.83;26.37;;;;;;;;;;5047498;28;20446;-67
2022/01/10 03:51:43;;;;;;;57.77;25.07;;;;;;;;;;5049093;28;20429;-68
2022/01/10 03:54:10;;;;;;;63.33;26.60;;;;;;;;;;5035601;28;20456;-68
2022/01/10 03:56:37;;;;;;;63.17;26.80;;;;;;;;;;5044416;28;20445;-68
2022/01/10 03:59:07;;;;;;;64.87;25.13;;;;;;;;;;5048688;28;20487;-67
2022/01/10 04:01:37;;;;;;;59.63;26.07;;;;;;;;;;5055316;28;20437;-65
2022/01/10 04:04:08;;;;;;;60.70;24.83;;;;;;;;;;5046537;28;20458;-65
2022/01/10 04:06:35;;;;;;;64.20;26.97;;;;;;;;;;5046233;28;20447;-66
2022/01/10 04:09:03;;;;;;;61.23;25.63;;;;;;;;;;5045937;28;20443;-66
2022/01/10 04:11:30;;;;;;;61.97;25.70;;;;;;;;;;5045137;28;20470;-65
2022/01/10 04:13:57;;;;;;;55.17;25.00;;;;;;;;;;5046203;28;21048;-64
2022/01/10 04:16:24;;;;;;;59.20;24.60;;;;;;;;;;5048621;28;20480;-65
2022/01/10 04:18:51;;;;;;;61.70;25.30;;;;;;;;;;5044313;28;20477;-64
2022/01/10 04:21:18;;;;;;;70.33;29.33;;;;;;;;;;5044565;28;20472;-63
2022/01/10 04:23:45;;;;;;;67.67;29.27;;;;;;;;;;5045430;28;20437;-65
2022/01/10 04:26:12;;;;;;;66.20;28.73;;;;;;;;;;5057056;28;20464;-67
2022/01/10 04:28:38;;;;;;;66.57;28.83;;;;;;;;;;5054985;28;20441;-65
2022/01/10 04:31:06;;;;;;;57.03;26.20;;;;;;;;;;5044839;28;20456;-64
2022/01/10 04:33:32;;;;;;;68.37;29.30;;;;;;;;;;5045496;28;20533;-64
2022/01/10 04:35:59;;;;;;;65.97;28.00;;;;;;;;;;5044128;28;20532;-65
2022/01/10 04:38:27;;;;;;;67.63;27.87;;;;;;;;;;5052136;28;20492;-64
2022/01/10 04:40:54;;;;;;;64.47;27.00;;;;;;;;;;5043388;28;20486;-63
2022/01/10 04:43:21;;;;;;;62.87;27.17;;;;;;;;;;5046856;28;20844;-64
2022/01/10 04:45:54;;;;;;;62.70;26.70;;;;;;;;;;5050666;28;20438;-65
2022/01/10 04:48:21;;;;;;;66.23;27.77;;;;;;;;;;5047458;28;20446;-66
2022/01/10 04:53:34;;;;;;;69.00;27.07;;;;;;;;;;5060945;28;20429;-65
2022/01/10 04:56:00;;;;;;;53.93;24.20;;;;;;;;;;5057784;28;20453;-63
2022/01/10 04:58:28;;;;;;;59.27;24.17;;;;;;;;;;5045000;28;20473;-64
2022/01/10 05:00:55;;;;;;;51.73;22.37;;;;;;;;;;5044202;28;20483;-64
2022/01/10 05:03:25;;;;;;;60.53;25.60;;;;;;;;;;5044030;28;20441;-65
2022/01/10 05:05:54;;;;;;;59.67;24.10;;;;;;;;;;5046360;28;20462;-66
2022/01/10 05:08:22;;;;;;;59.83;24.53;;;;;;;;;;5060119;28;20502;-67
2022/01/10 05:10:51;;;;;;;64.37;26.37;;;;;;;;;;5043819;28;20536;-67
2022/01/10 05:13:18;;;;;;;63.67;27.20;;;;;;;;;;5049481;28;20453;-65
2022/01/10 05:15:46;;;;;;;61.03;27.67;;;;;;;;;;5054064;28;20445;-65
2022/01/10 05:18:13;;;;;;;56.43;26.40;;;;;;;;;;5048016;28;20445;-65
2022/01/10 05:20:40;;;;;;;60.23;24.30;;;;;;;;;;5038882;28;21436;-63
2022/01/10 05:23:07;;;;;;;63.83;25.50;;;;;;;;;;5055764;28;20535;-66
2022/01/10 05:25:36;;;;;;;60.70;26.50;;;;;;;;;;5050714;28;20451;-65
2022/01/10 05:28:04;;;;;;;63.00;24.67;;;;;;;;;;5043236;28;20433;-66
2022/01/10 05:30:31;;;;;;;60.43;25.33;;;;;;;;;;5043286;28;20450;-67
2022/01/10 05:32:58;;;;;;;55.60;23.67;;;;;;;;;;5044287;28;20494;-66
2022/01/10 05:35:30;;;;;;;59.93;23.17;;;;;;;;;;5060567;28;20535;-66
2022/01/10 05:37:57;;;;;;;68.40;26.97;;;;;;;;;;5050853;28;21709;-65
2022/01/10 05:40:24;;;;;;;67.67;25.50;;;;;;;;;;5049098;28;20573;-66
2022/01/10 05:42:50;;;;;;;62.37;28.30;;;;;;;;;;5050628;28;20449;-66
2022/01/10 05:45:19;;;;;;;66.67;28.13;;;;;;;;;;5062781;28;20495;-67
2022/01/10 05:47:46;;;;;;;70.97;29.67;;;;;;;;;;5056389;28;20436;-66
2022/01/10 05:50:16;;;;;;;73.27;30.50;;;;;;;;;;5052614;28;20811;-66
2022/01/10 05:52:45;;;;;;;66.87;28.40;;;;;;;;;;5051935;28;20453;-67
2022/01/10 05:55:12;;;;;;;75.97;29.37;;;;;;;;;;5038411;28;20489;-65
2022/01/10 05:57:43;;;;;;;73.80;28.70;;;;;;;;;;5050852;28;21216;-66
2022/01/10 06:00:11;;;;;;;80.30;32.27;;;;;;;;;;5051548;28;20482;-67
2022/01/10 06:02:40;;;;;;;79.83;32.43;;;;;;;;;;5057706;28;20561;-67
2022/01/10 06:05:10;;;;;;;90.20;35.80;;;;;;;;;;5054929;28;20486;-66
2022/01/10 06:07:44;;;;;;;118.53;42.07;;;;;;;;;;5056340;28;20450;-67
2022/01/10 06:10:11;;;;;;;158.33;49.63;;;;;;;;;;5059059;28;20436;-66
2022/01/10 06:12:38;;;;;;;140.37;46.17;;;;;;;;;;5040555;28;20467;-67
2022/01/10 06:15:05;;;;;;;118.93;44.23;;;;;;;;;;5053809;28;20443;-67
2022/01/10 06:17:37;;;;;;;81.47;33.43;;;;;;;;;;5049940;28;20437;-66
2022/01/10 06:20:04;;;;;;;85.50;34.90;;;;;;;;;;5059705;28;21012;-68
2022/01/10 06:22:31;;;;;;;85.53;34.30;;;;;;;;;;5049346;28;20458;-68
2022/01/10 06:24:58;;;;;;;90.23;33.87;;;;;;;;;;5054802;28;20803;-67
2022/01/10 06:27:27;;;;;;;84.83;34.07;;;;;;;;;;5051929;28;20443;-66
2022/01/10 06:29:53;;;;;;;78.97;30.73;;;;;;;;;;5059521;28;20449;-67
2022/01/10 06:32:20;;;;;;;70.33;29.07;;;;;;;;;;5053255;28;20946;-68
2022/01/10 06:34:48;;;;;;;71.63;29.47;;;;;;;;;;5048761;28;20461;-68
2022/01/10 06:37:15;;;;;;;72.80;29.70;;;;;;;;;;5048508;28;20482;-67
2022/01/10 06:39:44;;;;;;;74.37;29.50;;;;;;;;;;5054544;28;20500;-68
2022/01/10 06:42:12;;;;;;;68.43;27.57;;;;;;;;;;5044240;28;20533;-67
2022/01/10 06:44:39;;;;;;;62.80;27.87;;;;;;;;;;5056636;28;20513;-68
2022/01/10 06:47:08;;;;;;;67.03;26.80;;;;;;;;;;5049854;28;20456;-69
2022/01/10 06:49:35;;;;;;;68.37;29.40;;;;;;;;;;5050276;28;20447;-68
2022/01/10 06:52:03;;;;;;;66.70;27.90;;;;;;;;;;5050982;28;20448;-67
2022/01/10 06:54:30;;;;;;;71.67;29.93;;;;;;;;;;5046866;28;20540;-67
2022/01/10 06:56:58;;;;;;;93.57;36.30;;;;;;;;;;5057047;28;20446;-68
2022/01/10 06:59:27;;;;;;;89.13;34.50;;;;;;;;;;5054316;28;21268;-68
2022/01/10 07:01:55;;;;;;;104.50;42.27;;;;;;;;;;5051913;28;20585;-67
2022/01/10 07:04:23;;;;;;;102.70;40.87;;;;;;;;;;5036575;28;20443;-67
2022/01/10 07:06:50;;;;;;;94.30;38.27;;;;;;;;;;5050873;28;20442;-68
2022/01/10 07:09:21;;;;;;;94.30;37.00;;;;;;;;;;5034352;28;20454;-67
2022/01/10 07:11:59;;;;;;;89.80;36.30;;;;;;;;;;5054607;28;20474;-67
2022/01/10 07:14:32;;;;;;;89.17;34.63;;;;;;;;;;5048252;28;20461;-67
2022/01/10 07:17:05;;;;;;;85.87;34.50;;;;;;;;;;5049161;28;20951;-67
2022/01/10 07:19:32;;;;;;;79.13;32.83;;;;;;;;;;5050849;28;20479;-68
2022/01/10 07:21:59;;;;;;;81.23;31.47;;;;;;;;;;5052809;28;20479;-69
2022/01/10 07:24:26;;;;;;;81.70;33.40;;;;;;;;;;5051553;28;20558;-67
2022/01/10 07:26:53;;;;;;;80.10;33.60;;;;;;;;;;5052286;28;20445;-66
2022/01/10 07:29:19;;;;;;;79.00;33.63;;;;;;;;;;5057009;28;20871;-67
2022/01/10 07:31:46;;;;;;;94.20;39.60;;;;;;;;;;5051530;28;20440;-68
2022/01/10 07:34:15;;;;;;;95.70;41.80;;;;;;;;;;5058945;28;20483;-68
2022/01/10 07:36:42;;;;;;;92.77;37.93;;;;;;;;;;5041730;28;20446;-68
2022/01/10 07:39:10;;;;;;;87.07;38.17;;;;;;;;;;5051496;28;20832;-68
2022/01/10 07:41:40;;;;;;;119.70;49.67;;;;;;;;;;5057624;28;20444;-68
2022/01/10 07:44:12;;;;;;;102.67;43.63;;;;;;;;;;5032377;28;20440;-68
2022/01/10 07:46:39;;;;;;;98.37;42.10;;;;;;;;;;5051765;28;20484;-68
2022/01/10 07:49:06;;;;;;;88.40;39.00;;;;;;;;;;5068755;28;20852;-68
2022/01/10 07:51:32;;;;;;;91.53;39.03;;;;;;;;;;5048911;28;20460;-68
2022/01/10 07:54:02;;;;;;;105.23;43.50;;;;;;;;;;5069298;28;20428;-68
2022/01/10 07:56:28;;;;;;;94.50;40.33;;;;;;;;;;5057393;28;20461;-68
2022/01/10 07:58:56;;;;;;;89.63;39.60;;;;;;;;;;5049385;28;20428;-68
2022/01/10 08:01:23;;;;;;;99.93;41.17;;;;;;;;;;5055729;28;20809;-68
2022/01/10 08:03:50;;;;;;;108.87;42.57;;;;;;;;;;5070047;28;20842;-67
2022/01/10 08:06:20;;;;;;;86.37;37.83;;;;;;;;;;5069855;28;20436;-68
2022/01/10 08:08:47;;;;;;;104.10;43.40;;;;;;;;;;5064713;28;20504;-67
2022/01/10 08:11:13;;;;;;;101.93;41.70;;;;;;;;;;5067825;28;20436;-67
2022/01/10 08:13:41;;;;;;;118.63;49.70;;;;;;;;;;5067971;28;20521;-64
2022/01/10 08:16:08;;;;;;;130.53;52.03;;;;;;;;;;5045600;28;20444;-66
2022/01/10 08:18:35;;;;;;;115.60;48.83;;;;;;;;;;5049120;28;20435;-65
2022/01/10 08:21:02;;;;;;;125.40;47.67;;;;;;;;;;5061580;28;20489;-66
2022/01/10 08:23:29;;;;;;;112.23;48.53;;;;;;;;;;5072865;28;20449;-65
2022/01/10 08:25:57;;;;;;;110.83;48.07;;;;;;;;;;5071157;28;20455;-66
2022/01/10 08:28:24;;;;;;;107.17;48.67;;;;;;;;;;5068213;28;20444;-66
2022/01/10 08:30:50;;;;;;;122.50;49.87;;;;;;;;;;5067372;28;20440;-66
2022/01/10 08:33:17;;;;;;;112.53;50.40;;;;;;;;;;5077244;28;20477;-67
2022/01/10 08:35:44;;;;;;;109.63;49.67;;;;;;;;;;5077380;28;20437;-68
2022/01/10 08:38:11;;;;;;;105.07;49.07;;;;;;;;;;5067057;28;20532;-68
2022/01/10 08:40:37;;;;;;;134.27;57.80;;;;;;;;;;5048134;28;20509;-66
2022/01/10 08:43:09;;;;;;;136.57;60.93;;;;;;;;;;5075194;28;20561;-67
2022/01/10 08:45:37;;;;;;;119.27;55.47;;;;;;;;;;5078497;28;20434;-68
2022/01/10 08:48:04;;;;;;;137.40;62.17;;;;;;;;;;5045834;28;20537;-68
2022/01/10 08:50:31;;;;;;;138.70;64.17;;;;;;;;;;5053729;28;20460;-68
2022/01/10 08:52:58;;;;;;;129.40;60.40;;;;;;;;;;5071961;28;21200;-66
2022/01/10 08:55:24;;;;;;;123.53;58.17;;;;;;;;;;5072122;28;20937;-67
2022/01/10 08:57:51;;;;;;;128.77;60.40;;;;;;;;;;5062267;28;20460;-66
2022/01/10 09:00:18;;;;;;;128.73;62.37;;;;;;;;;;5073131;28;20480;-64
2022/01/10 09:02:45;;;;;;;127.67;60.67;;;;;;;;;;5050284;28;20468;-65
2022/01/10 09:05:11;;;;;;;144.80;66.50;;;;;;;;;;5070920;28;20796;-65
2022/01/10 09:07:38;;;;;;;129.20;63.60;;;;;;;;;;5073386;28;20432;-66
2022/01/10 09:10:05;;;;;;;127.90;64.33;;;;;;;;;;5067851;28;21550;-66
2022/01/10 09:12:32;;;;;;;131.90;65.43;;;;;;;;;;5067360;28;20487;-65
2022/01/10 09:14:58;;;;;;;131.30;65.10;;;;;;;;;;5076626;28;20448;-67
2022/01/10 09:17:25;;;;;;;134.00;67.80;;;;;;;;;;5070299;28;20438;-67
2022/01/10 09:19:52;;;;;;;144.33;70.27;;;;;;;;;;5072182;28;20491;-67
2022/01/10 09:22:19;;;;;;;148.90;72.37;;;;;;;;;;5072206;28;20444;-66
2022/01/10 09:24:46;;;;;;;137.53;69.70;;;;;;;;;;5072564;28;20481;-66
2022/01/10 09:27:14;;;;;;;132.53;67.83;;;;;;;;;;5071152;28;20462;-67
2022/01/10 09:29:41;;;;;;;117.70;60.53;;;;;;;;;;5069917;28;20539;-66
2022/01/10 09:32:08;;;;;;;111.60;56.90;;;;;;;;;;5077991;28;20637;-68
2022/01/10 09:34:35;;;;;;;89.67;48.93;;;;;;;;;;5078106;28;21110;-66
2022/01/10 09:37:02;;;;;;;90.50;47.40;;;;;;;;;;5075496;28;20460;-67
2022/01/10 09:39:28;;;;;;;90.37;47.90;;;;;;;;;;5071315;28;20478;-68
2022/01/10 09:41:56;;;;;;;77.23;41.47;;;;;;;;;;5053331;28;20434;-68
2022/01/10 09:44:23;;;;;;;73.13;39.27;;;;;;;;;;5062648;28;20186;-67
2022/01/10 09:46:50;;;;;;;68.37;37.83;;;;;;;;;;5070702;28;20194;-67
2022/01/10 09:49:17;;;;;;;68.57;37.67;;;;;;;;;;5053060;28;20577;-67
2022/01/10 09:51:43;;;;;;;55.43;30.97;;;;;;;;;;5077538;28;20225;-66
2022/01/10 09:54:10;;;;;;;52.23;29.37;;;;;;;;;;5076723;28;20695;-66
2022/01/10 09:56:37;;;;;;;51.60;30.13;;;;;;;;;;5075730;28;20217;-67
2022/01/10 09:59:04;;;;;;;54.83;30.43;;;;;;;;;;5076107;28;20206;-65
2022/01/10 10:01:30;;;;;;;53.60;30.93;;;;;;;;;;5074932;28;20290;-66
2022/01/10 10:04:02;;;;;;;47.97;26.03;;;;;;;;;;5054694;28;20189;-66
2022/01/10 10:06:32;;;;;;;44.00;25.80;;;;;;;;;;5059290;28;20740;-65
2022/01/10 10:09:08;;;;;;;39.53;24.07;;;;;;;;;;5070095;28;20216;-66
2022/01/10 10:11:45;;;;;;;34.80;20.70;;;;;;;;;;5076612;28;20202;-67
2022/01/10 10:14:13;;;;;;;32.20;19.77;;;;;;;;;;5053520;28;20189;-67
2022/01/10 10:16:46;;;;;;;33.93;20.90;;;;;;;;;;5053874;28;20541;-67
2022/01/10 10:19:13;;;;;;;33.43;19.60;;;;;;;;;;5055311;28;20577;-67
2022/01/10 10:21:40;;;;;;;39.30;20.67;;;;;;;;;;5060785;28;20229;-68
2022/01/10 10:24:07;;;;;;;28.47;17.03;;;;;;;;;;5066486;28;20190;-66
2022/01/10 10:26:33;;;;;;;37.30;20.27;;;;;;;;;;5073982;28;20197;-66
2022/01/10 10:29:00;;;;;;;30.53;16.83;;;;;;;;;;5076017;28;20271;-68
2022/01/10 10:31:37;;;;;;;30.10;16.60;;;;;;;;;;5052034;28;20190;-67
2022/01/10 10:34:04;;;;;;;28.93;16.80;;;;;;;;;;5039691;28;20194;-67
2022/01/10 10:36:36;;;;;;;27.53;15.63;;;;;;;;;;5074752;28;20604;-71
2022/01/10 10:39:06;;;;;;;29.80;16.37;;;;;;;;;;5036715;28;20539;-70
2022/01/10 10:41:33;;;;;;;30.50;18.00;;;;;;;;;;5051889;28;20578;-68
2022/01/10 10:44:00;;;;;;;33.10;19.00;;;;;;;;;;5055523;28;20246;-69
2022/01/10 10:46:28;;;;;;;35.60;18.97;;;;;;;;;;5077129;28;20455;-69
2022/01/10 10:49:03;;;;;;;35.83;19.47;;;;;;;;;;5055920;28;20235;-66
2022/01/10 10:51:31;;;;;;;34.90;19.37;;;;;;;;;;5076401;28;20727;-68
2022/01/10 10:54:06;;;;;;;31.80;18.37;;;;;;;;;;5053768;28;20265;-69
2022/01/10 10:56:33;;;;;;;41.40;24.30;;;;;;;;;;5051595;28;20559;-68
2022/01/10 10:59:00;;;;;;;31.37;18.43;;;;;;;;;;5067165;28;20247;-68
2022/01/10 11:01:27;;;;;;;30.57;19.03;;;;;;;;;;5053622;28;20470;-68
2022/01/10 11:03:54;;;;;;;33.63;19.30;;;;;;;;;;5036102;28;20471;-68
2022/01/10 11:06:21;;;;;;;31.23;17.83;;;;;;;;;;5043327;28;20202;-68
2022/01/10 11:08:49;;;;;;;31.43;18.10;;;;;;;;;;5072688;28;20467;-70
2022/01/10 11:11:22;;;;;;;31.80;18.33;;;;;;;;;;5058813;28;20467;-70
2022/01/10 11:13:50;;;;;;;33.23;17.97;;;;;;;;;;5071316;28;20562;-70
2022/01/10 11:16:16;;;;;;;29.67;17.47;;;;;;;;;;5058765;28;20435;-69
2022/01/10 11:18:43;;;;;;;26.40;16.30;;;;;;;;;;5056078;28;20444;-69
2022/01/10 11:21:11;;;;;;;28.37;16.50;;;;;;;;;;5068554;28;20470;-67
2022/01/10 11:23:43;;;;;;;28.30;17.53;;;;;;;;;;5055763;28;21178;-69
2022/01/10 11:26:10;;;;;;;27.40;15.60;;;;;;;;;;5070515;28;20439;-68
2022/01/10 11:28:47;;;;;;;28.87;15.20;;;;;;;;;;5054913;28;20201;-69
2022/01/10 11:31:17;;;;;;;25.27;14.77;;;;;;;;;;5074099;28;20551;-69
2022/01/10 11:33:44;;;;;;;30.80;16.50;;;;;;;;;;5041816;28;20523;-68
2022/01/10 11:36:12;;;;;;;25.17;14.37;;;;;;;;;;5060999;28;20594;-69
2022/01/10 11:39:03;;;;;;;32.70;18.13;;;;;;;;;;5052495;28;21146;-68
2022/01/10 11:41:31;;;;;;;31.40;16.33;;;;;;;;;;5063628;28;21247;-70
2022/01/10 11:44:07;;;;;;;27.83;14.20;;;;;;;;;;5066945;28;20436;-69
2022/01/10 11:46:37;;;;;;;26.47;14.53;;;;;;;;;;5065093;28;20455;-72
2022/01/10 11:49:21;;;;;;;26.00;14.53;;;;;;;;;;5051141;28;20247;-69
2022/01/10 11:51:51;;;;;;;27.40;14.67;;;;;;;;;;5056290;28;20479;-70
2022/01/10 11:54:18;;;;;;;23.60;13.93;;;;;;;;;;5070213;28;20447;-69
2022/01/10 11:56:46;;;;;;;24.03;13.50;;;;;;;;;;5070143;28;20446;-68
2022/01/10 11:59:14;;;;;;;26.17;14.40;;;;;;;;;;5050813;28;20443;-67
2022/01/10 12:01:42;;;;;;;26.43;13.90;;;;;;;;;;5050212;28;20590;-67
2022/01/10 12:04:09;;;;;;;25.23;13.70;;;;;;;;;;5066423;28;20472;-69
2022/01/10 12:06:35;;;;;;;29.03;15.57;;;;;;;;;;5077219;28;20760;-69
2022/01/10 12:09:02;;;;;;;35.90;16.60;;;;;;;;;;5052250;28;21010;-68
2022/01/10 12:11:29;;;;;;;42.13;19.20;;;;;;;;;;5076014;28;20526;-69
2022/01/10 12:13:59;;;;;;;55.83;25.70;;;;;;;;;;5063796;28;21259;-70
2022/01/10 12:16:26;;;;;;;89.93;34.03;;;;;;;;;;5048029;28;20435;-70
2022/01/10 12:18:53;;;;;;;63.97;26.57;;;;;;;;;;5071510;28;20955;-70
2022/01/10 12:21:20;;;;;;;52.23;23.50;;;;;;;;;;5067412;28;20526;-70
2022/01/10 12:23:47;;;;;;;47.50;22.43;;;;;;;;;;5050481;28;20456;-68
2022/01/10 12:26:14;;;;;;;39.13;19.20;;;;;;;;;;5071104;28;20444;-69
2022/01/10 12:28:40;;;;;;;26.57;14.23;;;;;;;;;;5045475;28;20474;-68
2022/01/10 12:31:07;;;;;;;30.17;15.47;;;;;;;;;;5048502;28;20907;-70
2022/01/10 12:33:34;;;;;;;27.30;15.33;;;;;;;;;;5065561;28;20463;-68
2022/01/10 12:36:05;;;;;;;25.13;13.90;;;;;;;;;;5072984;28;20439;-70
2022/01/10 12:38:32;;;;;;;25.83;12.67;;;;;;;;;;5053199;28;20455;-70
2022/01/10 12:40:58;;;;;;;20.93;12.07;;;;;;;;;;5053377;28;20823;-67
2022/01/10 12:43:25;;;;;;;19.50;10.93;;;;;;;;;;5051296;28;20479;-66
2022/01/10 12:45:52;;;;;;;19.83;10.37;;;;;;;;;;5054820;28;20429;-65
2022/01/10 12:48:22;;;;;;;18.73;10.33;;;;;;;;;;5048723;28;20505;-66
2022/01/10 12:50:51;;;;;;;18.37;9.90;;;;;;;;;;5046397;28;20445;-65
2022/01/10 12:53:18;;;;;;;26.27;11.37;;;;;;;;;;5047230;28;20429;-66
2022/01/10 12:55:45;;;;;;;24.83;10.27;;;;;;;;;;5055168;28;20518;-72
2022/01/10 12:58:12;;;;;;;23.83;10.50;;;;;;;;;;5047391;28;20520;-71
2022/01/10 13:00:39;;;;;;;26.00;12.17;;;;;;;;;;5049131;28;20524;-73
2022/01/10 13:03:06;;;;;;;41.00;15.70;;;;;;;;;;5049144;28;21187;-72
2022/01/10 13:05:33;;;;;;;27.97;13.97;;;;;;;;;;5046447;28;20881;-72
2022/01/10 13:08:00;;;;;;;44.23;19.27;;;;;;;;;;5049766;28;20440;-72
2022/01/10 13:10:33;;;;;;;36.33;15.83;;;;;;;;;;5049009;28;20436;-71
2022/01/10 13:13:03;;;;;;;30.93;15.27;;;;;;;;;;5051146;28;20454;-72
2022/01/10 13:15:33;;;;;;;29.40;12.73;;;;;;;;;;5043715;28;20516;-72
2022/01/10 13:18:00;;;;;;;24.47;11.40;;;;;;;;;;5027937;28;20433;-74
2022/01/10 13:20:27;;;;;;;28.13;11.93;;;;;;;;;;5044971;28;20865;-72
2022/01/10 13:23:06;;;;;;;29.73;12.97;;;;;;;;;;5052240;28;20475;-74
2022/01/10 13:25:45;;;;;;;41.10;17.73;;;;;;;;;;5045697;28;20441;-75
2022/01/10 13:28:12;;;;;;;100.30;39.77;;;;;;;;;;5050340;28;20451;-73
2022/01/10 13:30:52;;;;;;;81.90;38.50;;;;;;;;;;5030583;28;20492;-72
2022/01/10 13:33:20;;;;;;;60.90;28.97;;;;;;;;;;5050943;28;20456;-72
2022/01/10 13:35:56;;;;;;;43.10;23.10;;;;;;;;;;5043213;28;20507;-72
2022/01/10 13:38:28;;;;;;;42.83;22.83;;;;;;;;;;5031622;28;20456;-71
2022/01/10 13:40:55;;;;;;;32.10;16.57;;;;;;;;;;5017579;28;20476;-72
2022/01/10 13:43:23;;;;;;;106.10;42.70;;;;;;;;;;5027928;28;20445;-73
2022/01/10 13:45:52;;;;;;;45.80;21.83;;;;;;;;;;5027351;28;20994;-72
2022/01/10 13:48:25;;;;;;;71.50;29.90;;;;;;;;;;5025595;28;20440;-70
2022/01/10 13:50:57;;;;;;;38.50;18.03;;;;;;;;;;5026678;28;20897;-72
2022/01/10 13:53:27;;;;;;;38.67;17.77;;;;;;;;;;5035126;28;20454;-71
2022/01/10 13:56:14;;;;;;;25.40;13.63;;;;;;;;;;5015923;28;20836;-72
2022/01/10 13:58:44;;;;;;;21.97;11.80;;;;;;;;;;5039912;28;20438;-71
2022/01/10 14:01:40;;;;;;;18.63;10.57;;;;;;;;;;5032506;28;20492;-69
2022/01/10 14:04:23;;;;;;;22.03;11.83;;;;;;;;;;5025037;28;21165;-71
2022/01/10 14:06:50;;;;;;;28.07;14.80;;;;;;;;;;5029103;28;20449;-71
2022/01/10 14:09:19;;;;;;;30.67;15.87;;;;;;;;;;5025193;28;20974;-69
2022/01/10 14:11:46;;;;;;;27.93;13.77;;;;;;;;;;5018514;28;20440;-71
2022/01/10 14:14:13;;;;;;;23.30;12.43;;;;;;;;;;5038366;28;20444;-69
2022/01/10 14:16:43;;;;;;;27.07;14.23;;;;;;;;;;5039265;28;20436;-69
2022/01/10 14:19:10;;;;;;;23.00;12.57;;;;;;;;;;5036898;28;20445;-69
2022/01/10 14:21:37;;;;;;;21.73;11.87;;;;;;;;;;5041407;28;20472;-67
2022/01/10 14:24:04;;;;;;;21.17;10.93;;;;;;;;;;5031179;28;20452;-69
2022/01/10 14:26:30;;;;;;;20.60;10.20;;;;;;;;;;5014507;28;20453;-68
2022/01/10 14:29:02;;;;;;;21.17;10.60;;;;;;;;;;5026015;28;20442;-66
2022/01/10 14:31:28;;;;;;;17.23;9.43;;;;;;;;;;5016006;28;20469;-70
2022/01/10 14:33:56;;;;;;;15.90;9.20;;;;;;;;;;5025805;28;21178;-69
2022/01/10 14:36:27;;;;;;;16.53;9.23;;;;;;;;;;5032205;28;20468;-67
2022/01/10 14:38:54;;;;;;;16.83;8.90;;;;;;;;;;5035346;28;20436;-70
2022/01/10 14:41:23;;;;;;;18.33;8.80;;;;;;;;;;5067215;28;20509;-68
2022/01/10 14:43:50;;;;;;;19.77;9.73;;;;;;;;;;5081739;28;20467;-67
2022/01/10 14:46:17;;;;;;;21.07;10.00;;;;;;;;;;5062969;28;20439;-68
2022/01/10 14:48:47;;;;;;;19.87;9.67;;;;;;;;;;5083635;28;21016;-68
2022/01/10 14:51:13;;;;;;;17.07;8.97;;;;;;;;;;5055231;28;20432;-68
2022/01/10 14:53:40;;;;;;;18.00;8.90;;;;;;;;;;5061078;28;20974;-68
2022/01/10 14:56:09;;;;;;;18.50;9.33;;;;;;;;;;5070216;28;20986;-67
2022/01/10 14:58:36;;;;;;;23.43;10.53;;;;;;;;;;5052976;28;20432;-67
2022/01/10 15:01:03;;;;;;;23.77;13.27;;;;;;;;;;5053786;28;20434;-67